Time;durP1;ratioP1;P1;durP2;ratioP2;P2;SDS_P1;SDS_P2;PMS_P1;PMS_P2;Temp;Humidity;BMP_temperature;BMP_pressure;BME280_temperature;BME280_humidity;BME280_pressure;Samples;Min_cycle;Max_cycle;Signal;HPM_P1;HPM_P2
2021/01/22 00:02:25;;;;;;;9.30;2.13;;;29.50;73.60;;;;;;5051708;28;20184;-69
2021/01/22 00:04:52;;;;;;;11.50;2.53;;;29.10;73.80;;;;;;5052481;28;20238;-69
2021/01/22 00:07:20;;;;;;;6.60;2.43;;;29.10;74.10;;;;;;5053343;28;20172;-68
2021/01/22 00:09:47;;;;;;;6.80;2.40;;;29.10;74.00;;;;;;5052520;28;20210;-70
2021/01/22 00:12:14;;;;;;;12.67;2.37;;;29.10;74.00;;;;;;5053099;28;20249;-70
2021/01/22 00:14:42;;;;;;;9.10;2.17;;;29.30;73.90;;;;;;5051143;28;20194;-70
2021/01/22 00:17:09;;;;;;;8.90;2.03;;;29.60;72.30;;;;;;5053048;28;20210;-70
2021/01/22 00:19:36;;;;;;;7.20;2.33;;;29.60;72.20;;;;;;5052985;28;20587;-70
2021/01/22 00:22:04;;;;;;;10.50;2.83;;;29.90;72.30;;;;;;5053441;28;20195;-69
2021/01/22 00:24:31;;;;;;;7.67;2.27;;;30.10;72.30;;;;;;5051991;28;20176;-70
2021/01/22 00:26:58;;;;;;;8.53;2.40;;;30.10;70.90;;;;;;5052814;28;20303;-69
2021/01/22 00:29:26;;;;;;;8.97;3.17;;;30.20;71.20;;;;;;5052736;28;20258;-70
2021/01/22 00:31:53;;;;;;;9.40;2.50;;;30.30;70.10;;;;;;5033001;28;20192;-69
2021/01/22 00:34:21;;;;;;;7.87;1.90;;;30.60;69.60;;;;;;5036270;28;20263;-69
2021/01/22 00:36:49;;;;;;;9.68;2.65;;;30.70;69.50;;;;;;5052788;28;20172;-69
2021/01/22 00:39:16;;;;;;;11.40;2.42;;;30.80;69.20;;;;;;5052808;28;20183;-69
2021/01/22 00:41:45;;;;;;;11.03;2.63;;;30.90;68.90;;;;;;5053087;28;20525;-69
2021/01/22 00:44:12;;;;;;;8.50;2.30;;;30.90;69.20;;;;;;5052674;28;20219;-69
2021/01/22 00:46:39;;;;;;;8.23;2.33;;;30.90;69.20;;;;;;5052770;28;20230;-69
2021/01/22 00:49:07;;;;;;;10.43;2.88;;;31.00;68.90;;;;;;5052809;28;20179;-70
2021/01/22 00:51:35;;;;;;;11.25;2.55;;;31.00;69.20;;;;;;5052553;28;20207;-70
2021/01/22 00:54:02;;;;;;;7.80;2.67;;;30.90;68.80;;;;;;5051863;28;20209;-71
2021/01/22 00:56:30;;;;;;;7.37;2.53;;;31.10;68.20;;;;;;5052060;28;20183;-71
2021/01/22 00:58:57;;;;;;;14.15;3.05;;;31.20;67.90;;;;;;5052429;28;20229;-70
2021/01/22 01:01:24;;;;;;;10.55;2.40;;;31.40;68.00;;;;;;5051446;28;20222;-73
2021/01/22 01:03:52;;;;;;;14.68;3.65;;;31.40;66.90;;;;;;5052734;28;20175;-71
2021/01/22 01:06:19;;;;;;;15.67;3.13;;;31.50;69.30;;;;;;5053303;28;20528;-70
2021/01/22 01:08:46;;;;;;;11.57;3.38;;;31.60;67.90;;;;;;5052839;28;20200;-70
2021/01/22 01:11:14;;;;;;;10.53;2.97;;;31.60;69.80;;;;;;5053221;28;20219;-70
2021/01/22 01:13:41;;;;;;;11.68;3.30;;;31.50;70.30;;;;;;5053299;28;20218;-70
2021/01/22 01:16:09;;;;;;;18.88;3.88;;;31.00;71.80;;;;;;5051869;28;20237;-70
2021/01/22 01:18:37;;;;;;;17.88;4.05;;;30.90;72.40;;;;;;5053057;28;20176;-69
2021/01/22 01:21:06;;;;;;;14.33;4.07;;;30.90;72.30;;;;;;5053254;28;20180;-70
2021/01/22 01:23:33;;;;;;;14.70;3.63;;;31.10;72.20;;;;;;5052231;28;20176;-69
2021/01/22 01:26:01;;;;;;;12.70;3.35;;;31.00;72.00;;;;;;5051292;28;20345;-69
2021/01/22 01:28:28;;;;;;;15.27;3.38;;;31.20;71.20;;;;;;5049080;28;20187;-69
2021/01/22 01:30:56;;;;;;;15.52;3.20;;;31.40;70.80;;;;;;5040846;28;20683;-67
2021/01/22 01:33:23;;;;;;;15.13;3.50;;;31.50;69.90;;;;;;5042900;28;20180;-69
2021/01/22 01:35:54;;;;;;;16.20;3.97;;;31.40;71.40;;;;;;5036076;28;20605;-68
2021/01/22 01:38:21;;;;;;;10.20;3.35;;;31.80;70.50;;;;;;5048428;28;20707;-68
2021/01/22 01:40:50;;;;;;;18.33;4.20;;;31.60;70.10;;;;;;5052586;28;20187;-69
2021/01/22 01:43:17;;;;;;;16.33;4.00;;;31.60;70.60;;;;;;5043187;28;20706;-69
2021/01/22 01:45:44;;;;;;;11.48;4.00;;;31.50;70.80;;;;;;5043125;28;20215;-69
2021/01/22 01:48:12;;;;;;;14.60;4.17;;;31.40;70.80;;;;;;5054386;28;20198;-68
2021/01/22 01:50:40;;;;;;;19.05;4.05;;;31.50;71.10;;;;;;5055460;28;20203;-69
2021/01/22 01:53:09;;;;;;;14.60;3.13;;;31.50;70.80;;;;;;5051125;28;20223;-69
2021/01/22 01:55:37;;;;;;;13.27;3.95;;;31.40;70.90;;;;;;5056142;28;20192;-70
2021/01/22 01:58:06;;;;;;;22.30;3.60;;;31.20;71.10;;;;;;5056969;28;20193;-69
2021/01/22 02:00:34;;;;;;;11.82;3.70;;;31.30;71.90;;;;;;5053931;28;20184;-69
2021/01/22 02:03:02;;;;;;;15.00;4.40;;;31.60;71.30;;;;;;5056439;28;20191;-68
2021/01/22 02:05:30;;;;;;;16.65;4.60;;;31.60;70.90;;;;;;5056148;28;20187;-68
2021/01/22 02:07:57;;;;;;;14.90;3.80;;;31.70;70.80;;;;;;5055678;28;20176;-70
2021/01/22 02:10:25;;;;;;;13.27;3.10;;;31.90;70.40;;;;;;5055885;28;20207;-71
2021/01/22 02:12:54;;;;;;;12.73;3.92;;;31.90;70.80;;;;;;5053687;28;20661;-69
2021/01/22 02:15:23;;;;;;;13.90;3.70;;;32.00;70.20;;;;;;5055574;28;20278;-68
2021/01/22 02:17:52;;;;;;;17.60;4.18;;;32.10;70.00;;;;;;5055208;28;20587;-69
2021/01/22 02:20:34;;;;;;;14.77;3.42;;;32.20;70.40;;;;;;5055354;28;20184;-69
2021/01/22 02:23:01;;;;;;;14.68;3.97;;;31.90;70.10;;;;;;5050555;28;20256;-67
2021/01/22 02:25:40;;;;;;;16.05;3.20;;;31.60;71.50;;;;;;5046654;28;20222;-68
2021/01/22 02:28:14;;;;;;;20.85;4.85;;;31.90;71.40;;;;;;5052512;28;20175;-68
2021/01/22 02:30:46;;;;;;;14.85;3.78;;;32.00;70.70;;;;;;5053840;28;20605;-68
2021/01/22 02:33:15;;;;;;;15.52;3.70;;;31.80;71.20;;;;;;5052829;28;20184;-68
2021/01/22 02:35:43;;;;;;;12.73;3.75;;;31.90;70.70;;;;;;5054856;28;20187;-68
2021/01/22 02:38:12;;;;;;;13.35;4.32;;;32.00;70.70;;;;;;5053918;28;20179;-69
2021/01/22 02:40:44;;;;;;;14.20;4.03;;;32.40;69.80;;;;;;5054765;28;20270;-70
2021/01/22 02:43:12;;;;;;;17.55;3.88;;;32.80;69.50;;;;;;5054772;28;20255;-68
2021/01/22 02:45:40;;;;;;;15.13;4.20;;;32.80;68.70;;;;;;5051253;28;20250;-72
2021/01/22 02:48:08;;;;;;;17.70;3.97;;;33.00;68.50;;;;;;5045885;28;20231;-69
2021/01/22 02:50:37;;;;;;;15.93;3.97;;;32.80;68.10;;;;;;5049161;28;20202;-68
2021/01/22 02:53:07;;;;;;;9.65;3.83;;;33.00;67.80;;;;;;5049862;28;20536;-68
2021/01/22 02:55:36;;;;;;;18.25;4.43;;;33.20;67.30;;;;;;5054718;28;20231;-70
2021/01/22 02:58:17;;;;;;;12.90;3.88;;;33.60;66.90;;;;;;5054344;28;20681;-70
2021/01/22 03:00:48;;;;;;;19.70;4.10;;;34.00;66.00;;;;;;5054078;28;20187;-70
2021/01/22 03:03:39;;;;;;;17.83;3.95;;;33.70;65.70;;;;;;5054155;28;20226;-68
2021/01/22 03:06:09;;;;;;;15.63;4.00;;;33.70;66.80;;;;;;5038939;28;20199;-71
2021/01/22 03:08:39;;;;;;;11.95;3.88;;;33.50;66.00;;;;;;5054353;28;20187;-69
2021/01/22 03:11:08;;;;;;;16.70;4.13;;;33.60;66.50;;;;;;5054297;28;20215;-68
2021/01/22 03:13:36;;;;;;;12.15;4.05;;;34.10;65.50;;;;;;5058445;28;20179;-70
2021/01/22 03:16:05;;;;;;;13.35;3.45;;;33.80;65.40;;;;;;5056405;28;20352;-70
2021/01/22 03:18:33;;;;;;;14.40;3.50;;;33.90;65.20;;;;;;5060242;28;20271;-70
2021/01/22 03:21:09;;;;;;;18.83;4.10;;;33.90;65.70;;;;;;5055348;28;20692;-70
2021/01/22 03:23:36;;;;;;;11.90;4.05;;;34.10;65.50;;;;;;5051345;28;20250;-70
2021/01/22 03:26:04;;;;;;;13.48;3.85;;;34.50;65.00;;;;;;5054062;28;20299;-70
2021/01/22 03:28:31;;;;;;;12.02;3.72;;;34.40;64.30;;;;;;5054072;28;20685;-69
2021/01/22 03:30:58;;;;;;;14.63;3.97;;;34.20;65.00;;;;;;5054008;28;20569;-69
2021/01/22 03:33:26;;;;;;;16.52;3.78;;;33.70;65.90;;;;;;5053902;28;20208;-69
2021/01/22 03:35:53;;;;;;;14.25;4.00;;;34.10;65.70;;;;;;5054086;28;20216;-69
2021/01/22 03:38:21;;;;;;;12.75;3.60;;;34.00;65.80;;;;;;5053919;28;20176;-69
2021/01/22 03:40:48;;;;;;;12.52;3.97;;;34.10;65.20;;;;;;5052421;28;20176;-69
2021/01/22 03:43:16;;;;;;;15.25;3.97;;;34.50;64.70;;;;;;5050122;28;20214;-71
2021/01/22 03:45:43;;;;;;;8.65;3.33;;;34.50;64.80;;;;;;5037368;28;20258;-70
2021/01/22 03:48:11;;;;;;;11.50;3.28;;;34.60;64.80;;;;;;5038532;28;20168;-70
2021/01/22 03:50:38;;;;;;;12.57;3.50;;;34.30;65.00;;;;;;5052094;28;20207;-69
2021/01/22 03:53:06;;;;;;;10.43;3.22;;;34.40;65.00;;;;;;5051033;28;20676;-73
2021/01/22 03:55:33;;;;;;;12.85;3.65;;;34.50;64.20;;;;;;5053543;28;20207;-71
2021/01/22 03:58:00;;;;;;;13.60;3.35;;;34.60;65.00;;;;;;5053382;28;20221;-69
2021/01/22 04:00:28;;;;;;;12.75;3.70;;;34.90;64.30;;;;;;5053617;28;20180;-69
2021/01/22 04:02:55;;;;;;;10.65;3.40;;;34.70;64.10;;;;;;5053080;28;20180;-69
2021/01/22 04:05:22;;;;;;;11.90;3.28;;;34.60;64.70;;;;;;5053283;28;20214;-71
2021/01/22 04:07:50;;;;;;;12.63;3.30;;;34.90;63.90;;;;;;5053003;28;20180;-70
2021/01/22 04:10:17;;;;;;;12.45;3.58;;;34.80;63.70;;;;;;5053064;28;20203;-71
2021/01/22 04:12:45;;;;;;;15.60;3.45;;;34.90;64.30;;;;;;5057557;28;20206;-69
2021/01/22 04:15:13;;;;;;;11.82;3.38;;;35.40;63.20;;;;;;5060028;28;20542;-69
2021/01/22 04:17:40;;;;;;;14.48;2.97;;;35.50;62.40;;;;;;5052787;28;20180;-69
2021/01/22 04:20:08;;;;;;;13.43;3.80;;;35.40;62.70;;;;;;5054230;28;20184;-69
2021/01/22 04:22:36;;;;;;;10.50;3.45;;;35.50;62.20;;;;;;5051981;28;20184;-70
2021/01/22 04:25:03;;;;;;;14.30;3.55;;;35.50;62.40;;;;;;5052860;28;20176;-68
2021/01/22 04:27:31;;;;;;;12.60;3.38;;;35.70;61.60;;;;;;5052382;28;20216;-70
2021/01/22 04:29:58;;;;;;;8.93;3.53;;;35.30;62.10;;;;;;5053092;28;20548;-67
2021/01/22 04:32:25;;;;;;;11.07;3.28;;;35.00;62.20;;;;;;5052320;28;20188;-69
2021/01/22 04:34:53;;;;;;;8.38;2.85;;;34.90;62.60;;;;;;5052793;28;20194;-69
2021/01/22 04:37:20;;;;;;;10.43;3.30;;;34.90;62.10;;;;;;5051331;28;20257;-70
2021/01/22 04:39:47;;;;;;;16.92;3.13;;;34.90;62.60;;;;;;5052358;28;20209;-71
2021/01/22 04:42:15;;;;;;;9.93;3.22;;;34.70;62.70;;;;;;5052131;28;20184;-70
2021/01/22 04:44:42;;;;;;;19.27;3.88;;;34.70;62.40;;;;;;5052280;28;20270;-69
2021/01/22 04:47:10;;;;;;;11.32;3.17;;;34.90;62.40;;;;;;5051388;28;20587;-70
2021/01/22 04:49:39;;;;;;;13.50;3.15;;;34.70;61.70;;;;;;5052133;28;20693;-69
2021/01/22 04:52:10;;;;;;;10.45;2.97;;;34.90;61.90;;;;;;5051318;28;20188;-70
2021/01/22 04:54:44;;;;;;;12.48;3.00;;;35.10;61.60;;;;;;5052481;28;20535;-70
2021/01/22 04:57:12;;;;;;;14.52;3.08;;;35.60;61.00;;;;;;5051822;28;20536;-69
2021/01/22 04:59:52;;;;;;;13.50;3.55;;;35.60;60.80;;;;;;5052730;28;20168;-68
2021/01/22 05:02:20;;;;;;;12.23;3.60;;;35.50;60.80;;;;;;5032715;28;20195;-68
2021/01/22 05:04:48;;;;;;;10.40;3.80;;;35.70;60.50;;;;;;5047830;28;20531;-68
2021/01/22 05:07:15;;;;;;;17.80;4.05;;;35.80;60.40;;;;;;5050547;28;20538;-68
2021/01/22 05:09:42;;;;;;;11.15;2.53;;;35.40;60.60;;;;;;5052414;28;20167;-67
2021/01/22 05:12:10;;;;;;;11.52;2.83;;;35.10;61.30;;;;;;5052492;28;20267;-68
2021/01/22 05:14:38;;;;;;;16.77;3.25;;;35.10;60.60;;;;;;5051569;28;20694;-69
2021/01/22 05:17:10;;;;;;;10.05;2.65;;;35.30;60.70;;;;;;5051016;28;20195;-68
2021/01/22 05:19:46;;;;;;;12.15;3.25;;;35.80;59.80;;;;;;5034415;28;20581;-69
2021/01/22 05:22:15;;;;;;;12.10;2.95;;;35.60;60.00;;;;;;5052977;28;20187;-68
2021/01/22 05:24:43;;;;;;;14.07;3.20;;;36.00;59.40;;;;;;5055659;28;20657;-69
2021/01/22 05:27:16;;;;;;;12.05;3.10;;;35.50;60.10;;;;;;5055953;28;20316;-69
2021/01/22 05:29:44;;;;;;;11.93;2.72;;;34.20;62.20;;;;;;5056000;28;20275;-67
2021/01/22 05:32:31;;;;;;;8.80;3.22;;;33.40;64.80;;;;;;5054359;28;20184;-67
2021/01/22 05:34:59;;;;;;;12.30;3.15;;;33.00;66.10;;;;;;5035475;28;20186;-69
2021/01/22 05:37:27;;;;;;;13.02;3.20;;;32.80;67.70;;;;;;5050474;28;20560;-67
2021/01/22 05:40:14;;;;;;;14.85;3.42;;;32.60;68.60;;;;;;5052671;28;20759;-69
2021/01/22 05:42:54;;;;;;;15.52;3.50;;;32.80;67.80;;;;;;5053114;28;20679;-70
2021/01/22 05:45:37;;;;;;;20.45;3.50;;;33.20;67.00;;;;;;5043467;28;20190;-69
2021/01/22 05:48:05;;;;;;;14.48;3.60;;;33.50;66.00;;;;;;5047411;28;20176;-71
2021/01/22 05:50:47;;;;;;;11.93;3.00;;;33.80;65.70;;;;;;5054436;28;20534;-70
2021/01/22 05:53:16;;;;;;;11.90;3.03;;;33.80;65.80;;;;;;5053723;28;20184;-68
2021/01/22 05:55:44;;;;;;;15.60;4.00;;;33.90;65.30;;;;;;5056510;28;20207;-68
2021/01/22 05:58:27;;;;;;;13.60;3.10;;;33.70;64.70;;;;;;5056299;28;20540;-69
2021/01/22 06:01:19;;;;;;;10.20;3.08;;;33.80;64.90;;;;;;5056195;28;20575;-69
2021/01/22 06:03:50;;;;;;;14.13;3.47;;;34.30;64.00;;;;;;5050280;28;20191;-70
2021/01/22 06:06:18;;;;;;;13.35;3.13;;;34.80;62.70;;;;;;5055405;28;20226;-68
2021/01/22 06:08:57;;;;;;;15.95;2.90;;;34.70;62.50;;;;;;5055649;28;20184;-70
2021/01/22 06:11:28;;;;;;;10.05;3.15;;;34.50;62.60;;;;;;5054687;28;20238;-67
2021/01/22 06:13:58;;;;;;;11.82;3.55;;;34.60;62.40;;;;;;5055654;28;20953;-70
2021/01/22 06:16:28;;;;;;;13.82;3.28;;;34.70;62.50;;;;;;5055837;28;20266;-68
2021/01/22 06:18:59;;;;;;;12.43;3.00;;;34.90;61.90;;;;;;5055405;28;20183;-70
2021/01/22 06:21:48;;;;;;;12.38;2.75;;;34.60;62.70;;;;;;5054840;28;20859;-68
2021/01/22 06:24:17;;;;;;;16.23;3.33;;;34.80;62.00;;;;;;5054115;28;20543;-71
2021/01/22 06:26:45;;;;;;;11.40;2.88;;;34.90;62.20;;;;;;5055428;28;20631;-69
2021/01/22 06:29:12;;;;;;;11.40;2.67;;;35.30;61.00;;;;;;5054461;28;20184;-71
2021/01/22 06:31:41;;;;;;;8.55;3.05;;;35.10;60.40;;;;;;5054700;28;20273;-70
2021/01/22 06:34:10;;;;;;;12.25;3.17;;;35.00;60.90;;;;;;5055539;28;20168;-69
2021/01/22 06:36:39;;;;;;;12.63;2.90;;;35.40;59.60;;;;;;5055545;28;20187;-70
2021/01/22 06:39:06;;;;;;;11.68;2.75;;;36.00;58.80;;;;;;5054002;28;20186;-68
2021/01/22 06:41:35;;;;;;;14.27;2.72;;;36.10;57.70;;;;;;5053906;28;20634;-68
2021/01/22 06:44:03;;;;;;;11.77;3.60;;;35.50;58.00;;;;;;5055171;28;20221;-68
2021/01/22 06:46:32;;;;;;;9.73;3.00;;;35.50;58.40;;;;;;5053370;28;20558;-68
2021/01/22 06:49:05;;;;;;;9.25;3.35;;;35.60;58.20;;;;;;5054980;28;20194;-68
2021/01/22 06:51:37;;;;;;;12.88;3.15;;;35.30;58.10;;;;;;5055161;28;20208;-68
2021/01/22 06:54:10;;;;;;;9.20;3.08;;;35.10;58.30;;;;;;5054748;28;20506;-69
2021/01/22 06:56:58;;;;;;;17.42;4.90;;;35.00;59.10;;;;;;5053686;28;20274;-70
2021/01/22 06:59:29;;;;;;;10.98;2.97;;;35.10;59.50;;;;;;5044117;28;20192;-70
2021/01/22 07:01:57;;;;;;;12.02;3.83;;;35.10;59.30;;;;;;5049986;28;20176;-70
2021/01/22 07:04:33;;;;;;;15.75;4.15;;;35.50;59.30;;;;;;5054478;28;20182;-71
2021/01/22 07:07:03;;;;;;;11.30;3.80;;;35.60;59.50;;;;;;5053928;28;20186;-69
2021/01/22 07:09:47;;;;;;;13.48;3.22;;;35.60;58.90;;;;;;5054488;28;20587;-69
2021/01/22 07:12:38;;;;;;;13.55;3.72;;;35.00;59.30;;;;;;5054151;28;20215;-69
2021/01/22 07:15:24;;;;;;;12.13;3.05;;;34.90;60.00;;;;;;5049041;28;20544;-69
2021/01/22 07:18:01;;;;;;;13.23;3.55;;;34.90;59.50;;;;;;5052503;28;20188;-68
2021/01/22 07:20:29;;;;;;;14.48;3.28;;;34.80;59.70;;;;;;5052448;28;20182;-67
2021/01/22 07:23:01;;;;;;;10.32;2.60;;;34.60;60.50;;;;;;5053652;28;20672;-68
2021/01/22 07:25:42;;;;;;;14.65;3.90;;;34.30;61.30;;;;;;5053636;28;22515;-68
2021/01/22 07:28:18;;;;;;;10.70;3.47;;;33.90;63.00;;;;;;5054192;28;20194;-68
2021/01/22 07:30:46;;;;;;;13.60;4.22;;;33.70;63.40;;;;;;5053449;28;20203;-68
2021/01/22 07:33:36;;;;;;;16.10;5.72;;;33.50;63.90;;;;;;5053721;28;20194;-67
2021/01/22 07:36:19;;;;;;;13.98;3.00;;;33.10;65.00;;;;;;5053173;28;20188;-68
2021/01/22 07:38:51;;;;;;;18.42;3.65;;;32.70;66.20;;;;;;5053234;28;20555;-68
2021/01/22 07:41:22;;;;;;;16.75;3.58;;;32.50;67.30;;;;;;5052767;28;20219;-67
2021/01/22 07:44:07;;;;;;;14.82;4.70;;;32.10;68.30;;;;;;5053236;28;20180;-67
2021/01/22 07:46:47;;;;;;;16.15;4.63;;;31.90;69.10;;;;;;5045567;28;20188;-70
2021/01/22 07:49:14;;;;;;;17.13;4.63;;;31.70;70.00;;;;;;5053417;28;20184;-67
2021/01/22 07:51:42;;;;;;;16.33;4.70;;;31.50;70.90;;;;;;5052110;28;20215;-68
2021/01/22 07:54:11;;;;;;;21.92;5.43;;;31.20;71.50;;;;;;5053249;28;20168;-69
2021/01/22 07:56:47;;;;;;;17.75;4.72;;;31.10;72.50;;;;;;5053102;28;20275;-68
2021/01/22 07:59:15;;;;;;;16.95;4.60;;;30.70;73.70;;;;;;5052170;28;20195;-68
2021/01/22 08:01:43;;;;;;;19.02;5.45;;;30.60;74.40;;;;;;5053177;28;20191;-68
2021/01/22 08:04:12;;;;;;;24.90;9.65;;;30.40;75.10;;;;;;5053222;28;20176;-68
2021/01/22 08:06:50;;;;;;;26.93;6.10;;;30.20;75.80;;;;;;5051860;28;20274;-69
2021/01/22 08:09:18;;;;;;;17.80;4.20;;;30.10;76.90;;;;;;5052943;28;20634;-67
2021/01/22 08:11:52;;;;;;;15.97;3.83;;;29.90;77.60;;;;;;5052915;28;20307;-68
2021/01/22 08:14:33;;;;;;;15.17;4.17;;;29.60;78.00;;;;;;5053304;28;20172;-67
2021/01/22 08:17:04;;;;;;;14.73;3.97;;;29.60;78.50;;;;;;5052463;28;20253;-67
2021/01/22 08:19:33;;;;;;;16.87;3.70;;;29.50;78.70;;;;;;5052619;28;20184;-67
2021/01/22 08:22:02;;;;;;;14.20;3.80;;;29.50;78.40;;;;;;5052030;28;20184;-68
2021/01/22 08:24:30;;;;;;;15.87;3.73;;;29.40;78.60;;;;;;5049413;28;20183;-67
2021/01/22 08:27:03;;;;;;;19.97;6.60;;;29.20;79.30;;;;;;5051785;28;20350;-69
2021/01/22 08:29:33;;;;;;;16.17;4.57;;;29.10;79.70;;;;;;5052594;28;20184;-68
2021/01/22 08:32:02;;;;;;;14.53;3.90;;;29.00;79.90;;;;;;5052378;28;20820;-68
2021/01/22 08:34:35;;;;;;;17.50;4.00;;;28.90;80.50;;;;;;5053027;28;20223;-69
2021/01/22 08:37:05;;;;;;;13.33;3.53;;;28.80;80.80;;;;;;5061700;28;20254;-70
2021/01/22 08:40:07;;;;;;;16.30;3.50;;;28.70;81.70;;;;;;5049439;28;20176;-68
2021/01/22 08:42:36;;;;;;;12.83;3.53;;;28.60;81.20;;;;;;5003155;28;20194;-70
2021/01/22 08:45:06;;;;;;;19.77;4.13;;;28.60;81.40;;;;;;5038932;28;20184;-68
2021/01/22 08:47:41;;;;;;;15.97;4.00;;;28.60;81.60;;;;;;5051794;28;20270;-68
2021/01/22 08:50:09;;;;;;;17.17;3.90;;;28.50;81.30;;;;;;5050412;28;20203;-69
2021/01/22 08:52:38;;;;;;;14.37;3.77;;;28.50;81.30;;;;;;5050659;28;20199;-67
2021/01/22 08:55:20;;;;;;;18.73;4.03;;;28.40;81.40;;;;;;5051068;28;20271;-67
2021/01/22 08:58:00;;;;;;;14.07;3.93;;;28.30;81.60;;;;;;5052649;28;20358;-67
2021/01/22 09:00:28;;;;;;;16.60;4.00;;;28.30;82.00;;;;;;5052088;28;20184;-69
2021/01/22 09:02:56;;;;;;;12.57;3.70;;;28.30;82.10;;;;;;5050911;28;20214;-68
2021/01/22 09:05:26;;;;;;;13.27;3.33;;;28.20;81.80;;;;;;5049833;28;20613;-69
2021/01/22 09:08:12;;;;;;;11.97;3.80;;;28.20;82.00;;;;;;5047651;28;20545;-68
2021/01/22 09:10:49;;;;;;;16.00;3.57;;;28.20;81.90;;;;;;5054803;28;20599;-69
2021/01/22 09:13:27;;;;;;;13.27;3.60;;;28.10;81.80;;;;;;5051794;28;20183;-69
2021/01/22 09:16:08;;;;;;;11.83;3.47;;;28.00;81.50;;;;;;5047653;28;20199;-69
2021/01/22 09:18:36;;;;;;;11.87;3.40;;;28.00;81.50;;;;;;5045633;28;20234;-70
2021/01/22 09:21:05;;;;;;;19.00;4.53;;;27.90;81.40;;;;;;5051370;28;20184;-68
2021/01/22 09:23:34;;;;;;;12.80;3.43;;;27.90;81.40;;;;;;5051234;28;20207;-68
2021/01/22 09:26:01;;;;;;;14.80;3.23;;;27.90;81.40;;;;;;5050229;28;20724;-70
2021/01/22 09:28:28;;;;;;;12.57;3.20;;;27.80;81.10;;;;;;5052116;28;20662;-69
2021/01/22 09:30:56;;;;;;;12.27;3.30;;;27.80;81.20;;;;;;5051781;28;20207;-66
2021/01/22 09:33:23;;;;;;;11.13;2.73;;;27.70;81.30;;;;;;5051219;28;20180;-67
2021/01/22 09:35:50;;;;;;;11.37;3.73;;;27.70;82.00;;;;;;5050840;28;20179;-67
2021/01/22 09:38:18;;;;;;;9.70;2.73;;;27.60;81.50;;;;;;5046293;28;20268;-68
2021/01/22 09:40:45;;;;;;;13.83;3.50;;;27.60;81.80;;;;;;5051487;28;20641;-68
2021/01/22 09:43:15;;;;;;;11.80;3.50;;;27.60;82.10;;;;;;5051654;28;20238;-69
2021/01/22 09:45:42;;;;;;;10.57;3.03;;;27.50;82.40;;;;;;5048902;28;20614;-68
2021/01/22 09:48:10;;;;;;;13.00;3.20;;;27.50;82.60;;;;;;5045664;28;20183;-68
2021/01/22 09:50:37;;;;;;;13.90;3.27;;;27.40;83.00;;;;;;5049364;28;20733;-68
2021/01/22 09:53:05;;;;;;;10.53;3.33;;;27.40;83.10;;;;;;5049779;28;20211;-68
2021/01/22 09:55:32;;;;;;;10.73;3.27;;;27.40;83.40;;;;;;5051026;28;20187;-68
2021/01/22 09:58:00;;;;;;;8.33;2.90;;;27.30;83.50;;;;;;5052111;28;20208;-68
2021/01/22 10:00:27;;;;;;;11.27;3.40;;;27.30;83.60;;;;;;5051600;28;20180;-67
2021/01/22 10:02:54;;;;;;;10.87;3.10;;;27.30;83.80;;;;;;5051470;28;20187;-68
2021/01/22 10:05:22;;;;;;;15.17;3.80;;;27.20;83.90;;;;;;5051752;28;20175;-68
2021/01/22 10:07:49;;;;;;;13.33;3.57;;;27.20;84.10;;;;;;5052215;28;20180;-67
2021/01/22 10:10:16;;;;;;;10.57;3.40;;;27.20;84.20;;;;;;5050944;28;20218;-68
2021/01/22 10:12:44;;;;;;;10.63;2.83;;;27.10;84.40;;;;;;5054691;28;20196;-68
2021/01/22 10:15:12;;;;;;;8.60;3.20;;;27.10;84.50;;;;;;5055134;28;20184;-68
2021/01/22 10:17:40;;;;;;;13.77;3.30;;;27.10;84.50;;;;;;5043556;28;20569;-67
2021/01/22 10:20:08;;;;;;;14.03;3.43;;;27.10;84.50;;;;;;5052208;28;20219;-67
2021/01/22 10:22:37;;;;;;;13.13;3.47;;;27.10;84.90;;;;;;5045368;28;20575;-68
2021/01/22 10:25:04;;;;;;;9.47;3.60;;;27.00;85.00;;;;;;5040257;28;20657;-67
2021/01/22 10:27:32;;;;;;;15.07;3.40;;;27.00;85.10;;;;;;5049177;28;20223;-69
2021/01/22 10:29:59;;;;;;;13.80;3.47;;;27.00;85.30;;;;;;5052529;28;20279;-67
2021/01/22 10:32:26;;;;;;;14.80;3.97;;;27.00;85.50;;;;;;5054578;28;20203;-70
2021/01/22 10:34:54;;;;;;;16.50;2.97;;;27.00;85.70;;;;;;5055055;28;20176;-71
2021/01/22 10:37:22;;;;;;;13.20;3.40;;;27.00;85.70;;;;;;5054708;28;20314;-69
2021/01/22 10:39:49;;;;;;;14.00;3.40;;;27.00;85.70;;;;;;5052646;28;20788;-71
2021/01/22 10:42:17;;;;;;;10.17;3.30;;;27.00;85.80;;;;;;5053479;28;20203;-70
2021/01/22 10:44:44;;;;;;;12.50;3.47;;;27.10;85.80;;;;;;5052198;28;20504;-71
2021/01/22 10:47:12;;;;;;;10.20;3.40;;;27.00;85.90;;;;;;5055770;28;20175;-70
2021/01/22 10:49:39;;;;;;;12.43;2.80;;;27.00;86.20;;;;;;5055688;28;20176;-70
2021/01/22 10:52:06;;;;;;;11.47;2.93;;;27.00;86.20;;;;;;5055327;28;20221;-70
2021/01/22 10:54:34;;;;;;;10.17;3.27;;;27.00;86.50;;;;;;5051716;28;20176;-71
2021/01/22 10:57:02;;;;;;;17.73;3.70;;;26.90;86.70;;;;;;5052422;28;20188;-70
2021/01/22 10:59:29;;;;;;;18.70;3.60;;;26.90;87.00;;;;;;5054976;28;20614;-70
2021/01/22 11:01:57;;;;;;;11.10;2.90;;;26.90;87.10;;;;;;5054893;28;20215;-70
2021/01/22 11:04:24;;;;;;;9.80;3.30;;;26.90;87.20;;;;;;5055497;28;20191;-71
2021/01/22 11:06:51;;;;;;;11.23;3.50;;;26.90;87.60;;;;;;5045708;28;20212;-70
2021/01/22 11:09:19;;;;;;;12.23;3.40;;;26.90;87.80;;;;;;5044244;28;20287;-70
2021/01/22 11:11:46;;;;;;;18.87;4.23;;;26.80;88.10;;;;;;5046997;28;20578;-68
2021/01/22 11:14:13;;;;;;;12.50;3.60;;;26.90;88.20;;;;;;5052012;28;20202;-68
2021/01/22 11:16:41;;;;;;;16.53;4.00;;;26.80;88.10;;;;;;5053748;28;20581;-69
2021/01/22 11:19:08;;;;;;;10.30;3.20;;;26.70;88.60;;;;;;5050888;28;20180;-68
2021/01/22 11:21:35;;;;;;;13.70;3.30;;;26.70;88.90;;;;;;5054166;28;20208;-68
2021/01/22 11:24:03;;;;;;;15.87;3.97;;;26.70;88.90;;;;;;5053928;28;20180;-69
2021/01/22 11:26:31;;;;;;;16.50;4.20;;;26.70;88.80;;;;;;5054605;28;20269;-69
2021/01/22 11:28:58;;;;;;;13.43;3.50;;;26.70;88.70;;;;;;5052948;28;20600;-68
2021/01/22 11:31:28;;;;;;;17.00;3.87;;;26.80;88.50;;;;;;5045093;28;20631;-69
2021/01/22 11:33:56;;;;;;;12.10;3.20;;;26.80;88.60;;;;;;5053636;28;20187;-69
2021/01/22 11:36:26;;;;;;;18.50;3.87;;;26.80;88.30;;;;;;5045143;28;20597;-70
2021/01/22 11:38:53;;;;;;;13.00;3.60;;;26.80;89.30;;;;;;5054033;28;20195;-68
2021/01/22 11:41:21;;;;;;;13.50;3.33;;;26.70;88.90;;;;;;5054517;28;20190;-68
2021/01/22 11:43:48;;;;;;;14.20;3.83;;;26.70;89.00;;;;;;5045643;28;20547;-69
2021/01/22 11:46:16;;;;;;;9.93;3.33;;;26.70;89.20;;;;;;5052429;28;20198;-67
2021/01/22 11:48:43;;;;;;;14.40;3.77;;;26.70;89.40;;;;;;5049275;28;20183;-68
2021/01/22 11:51:11;;;;;;;14.63;4.43;;;26.60;89.20;;;;;;5052856;28;20207;-68
2021/01/22 11:53:38;;;;;;;14.47;3.47;;;26.60;89.30;;;;;;5051540;28;20215;-67
2021/01/22 11:56:05;;;;;;;16.53;4.27;;;26.50;89.10;;;;;;5053536;28;20176;-68
2021/01/22 11:58:33;;;;;;;17.70;4.73;;;26.50;89.20;;;;;;5053946;28;20184;-69
2021/01/22 12:01:00;;;;;;;16.70;3.90;;;26.50;89.50;;;;;;5053907;28;20579;-68
2021/01/22 12:03:27;;;;;;;12.27;3.73;;;26.50;89.60;;;;;;5053571;28;20184;-67
2021/01/22 12:05:55;;;;;;;11.43;3.13;;;26.50;89.70;;;;;;5052980;28;20176;-68
2021/01/22 12:08:22;;;;;;;14.90;4.23;;;26.40;89.90;;;;;;5053490;28;20229;-67
2021/01/22 12:10:50;;;;;;;19.50;4.37;;;26.40;90.10;;;;;;5051757;28;20208;-67
2021/01/22 12:13:17;;;;;;;14.17;3.83;;;26.30;90.20;;;;;;5053213;28;20176;-68
2021/01/22 12:15:46;;;;;;;20.70;4.90;;;26.30;90.30;;;;;;5049530;28;20184;-68
2021/01/22 12:18:13;;;;;;;15.50;3.97;;;26.30;90.50;;;;;;5047428;28;20180;-67
2021/01/22 12:20:43;;;;;;;16.83;3.80;;;26.20;90.60;;;;;;5051612;28;20186;-67
2021/01/22 12:23:11;;;;;;;20.50;4.87;;;26.20;90.70;;;;;;5052684;28;20187;-68
2021/01/22 12:25:38;;;;;;;20.00;4.63;;;26.30;90.80;;;;;;5052684;28;20224;-67
2021/01/22 12:28:05;;;;;;;16.67;4.20;;;26.20;90.90;;;;;;5052956;28;20184;-67
2021/01/22 12:30:33;;;;;;;13.83;4.53;;;26.20;91.00;;;;;;5042409;28;20239;-68
2021/01/22 12:33:00;;;;;;;25.83;5.17;;;26.20;91.20;;;;;;5052877;28;20533;-69
2021/01/22 12:35:27;;;;;;;19.93;4.43;;;26.10;91.30;;;;;;5049522;28;20211;-71
2021/01/22 12:37:55;;;;;;;15.73;4.43;;;26.10;91.50;;;;;;5052280;28;20195;-68
2021/01/22 12:40:22;;;;;;;15.93;4.33;;;26.10;91.50;;;;;;5051130;28;20195;-68
2021/01/22 12:42:49;;;;;;;14.40;4.40;;;26.00;91.70;;;;;;5051202;28;20179;-67
2021/01/22 12:45:18;;;;;;;13.97;3.30;;;26.00;91.90;;;;;;5051959;28;20184;-69
2021/01/22 12:47:45;;;;;;;20.20;4.63;;;25.90;91.80;;;;;;5051227;28;20268;-68
2021/01/22 12:50:13;;;;;;;11.37;3.80;;;25.90;92.00;;;;;;5051255;28;20561;-68
2021/01/22 12:52:40;;;;;;;17.37;4.00;;;25.80;91.90;;;;;;5050804;28;20183;-68